Time;durP1;ratioP1;P1;durP2;ratioP2;P2;SDS_P1;SDS_P2;PMS_P1;PMS_P2;Temp;Humidity;BMP_temperature;BMP_pressure;BME280_temperature;BME280_humidity;BME280_pressure;Samples;Min_cycle;Max_cycle;Signal;HPM_P1;HPM_P2
2022/01/17 00:01:12;;;;;;;9.88;2.05;;;19.90;53.90;;;;;;4480773;32;20156;-67
2022/01/17 00:03:38;;;;;;;9.52;2.30;;;19.80;53.90;;;;;;4481261;32;20129;-68
2022/01/17 00:06:04;;;;;;;8.43;2.30;;;19.80;53.90;;;;;;4481665;31;20172;-67
2022/01/17 00:08:31;;;;;;;7.15;2.20;;;19.80;53.90;;;;;;4481416;32;20157;-67
2022/01/17 00:10:57;;;;;;;10.85;2.08;;;19.80;53.90;;;;;;4479355;32;20193;-67
2022/01/17 00:13:26;;;;;;;8.00;1.98;;;19.80;53.80;;;;;;4480536;32;20129;-67
2022/01/17 00:16:14;;;;;;;7.88;2.63;;;19.70;53.80;;;;;;4493215;31;20223;-67
2022/01/17 00:21:06;;;;;;;10.07;1.80;;;19.70;53.80;;;;;;4481299;32;20150;-67
2022/01/17 00:23:33;;;;;;;9.07;2.28;;;19.70;53.80;;;;;;4480280;32;20184;-67
2022/01/17 00:26:00;;;;;;;9.25;2.28;;;19.60;53.70;;;;;;4481647;31;20137;-68
2022/01/17 00:28:26;;;;;;;9.25;1.90;;;19.70;53.80;;;;;;4480685;32;20125;-67
2022/01/17 00:30:52;;;;;;;6.55;2.03;;;19.60;53.70;;;;;;4482259;32;20140;-67
2022/01/17 00:33:18;;;;;;;5.63;1.92;;;19.60;53.70;;;;;;4481000;32;20132;-68
2022/01/17 00:35:44;;;;;;;6.05;1.70;;;19.60;53.70;;;;;;4482045;32;20206;-67
2022/01/17 00:38:12;;;;;;;9.23;1.92;;;19.60;53.80;;;;;;4480713;32;20139;-67
2022/01/17 00:40:40;;;;;;;7.45;1.73;;;19.60;53.70;;;;;;4482159;31;20137;-67
2022/01/17 00:43:07;;;;;;;7.35;2.00;;;19.60;53.80;;;;;;4482094;32;20218;-68
2022/01/17 00:45:35;;;;;;;9.40;2.10;;;19.60;53.70;;;;;;4481526;31;20143;-67
2022/01/17 00:48:01;;;;;;;5.70;1.80;;;19.50;53.70;;;;;;4481243;32;20174;-67
2022/01/17 00:50:29;;;;;;;6.95;2.15;;;19.50;53.60;;;;;;4481569;31;20191;-68
2022/01/17 00:52:55;;;;;;;9.23;2.00;;;19.50;53.70;;;;;;4481932;31;20125;-67
2022/01/17 00:55:21;;;;;;;8.50;2.22;;;19.50;53.70;;;;;;4481451;31;20125;-68
2022/01/17 00:57:47;;;;;;;6.88;1.70;;;19.50;53.70;;;;;;4481709;32;20513;-67
2022/01/17 01:00:14;;;;;;;7.45;1.80;;;19.50;53.70;;;;;;4482006;32;20255;-67
2022/01/17 01:02:41;;;;;;;5.82;1.63;;;19.50;53.70;;;;;;4481237;32;20137;-68
2022/01/17 01:05:08;;;;;;;6.68;1.88;;;19.50;53.70;;;;;;4481792;32;20124;-68
2022/01/17 01:07:34;;;;;;;8.65;2.25;;;19.40;53.70;;;;;;4493109;31;20141;-68
2022/01/17 01:10:07;;;;;;;8.02;1.95;;;19.40;53.70;;;;;;4481862;32;20494;-67
2022/01/17 01:12:33;;;;;;;5.32;1.60;;;19.40;53.70;;;;;;4481209;31;20147;-67
2022/01/17 01:14:59;;;;;;;6.85;1.60;;;19.40;53.70;;;;;;4481672;32;20144;-68
2022/01/17 01:17:35;;;;;;;5.75;1.88;;;19.40;53.70;;;;;;4480404;32;20630;-68
2022/01/17 01:20:19;;;;;;;6.30;1.75;;;19.40;53.70;;;;;;4481186;31;20210;-67
2022/01/17 01:28:17;;;;;;;5.47;1.52;;;19.30;53.70;;;;;;4481193;32;20129;-67
2022/01/17 01:30:47;;;;;;;5.75;1.75;;;19.30;53.70;;;;;;4481170;31;20263;-67
2022/01/17 01:33:21;;;;;;;6.47;1.80;;;19.30;53.70;;;;;;4481207;31;20143;-67
2022/01/17 01:35:48;;;;;;;6.43;1.65;;;19.30;53.70;;;;;;4481375;32;20288;-67
2022/01/17 01:38:14;;;;;;;5.82;2.05;;;19.30;53.70;;;;;;4479964;32;20490;-68
2022/01/17 01:40:41;;;;;;;5.68;1.88;;;19.30;53.70;;;;;;4481062;32;20198;-67
2022/01/17 01:43:07;;;;;;;7.75;2.00;;;19.30;53.70;;;;;;4480059;32;20125;-67
2022/01/17 01:45:32;;;;;;;6.70;1.77;;;19.30;53.70;;;;;;4480904;32;20148;-67
2022/01/17 01:47:59;;;;;;;6.32;1.60;;;19.20;53.60;;;;;;4479897;32;20117;-67
2022/01/17 01:50:25;;;;;;;5.93;1.48;;;19.20;53.60;;;;;;4480846;32;20141;-67
2022/01/17 01:52:51;;;;;;;7.93;2.05;;;19.20;53.60;;;;;;4481091;32;20214;-68
2022/01/17 01:55:21;;;;;;;6.40;1.70;;;19.20;53.60;;;;;;4480693;32;20168;-67
2022/01/17 01:57:47;;;;;;;7.07;2.00;;;19.20;53.60;;;;;;4481027;31;20125;-68
2022/01/17 02:00:15;;;;;;;4.90;1.45;;;19.20;53.60;;;;;;4480005;32;20179;-67
2022/01/17 02:02:42;;;;;;;6.00;1.63;;;19.20;53.60;;;;;;4480418;31;20143;-67
2022/01/17 02:05:08;;;;;;;7.05;1.50;;;19.20;53.60;;;;;;4480736;32;20151;-68
2022/01/17 02:07:35;;;;;;;7.75;2.10;;;19.20;53.60;;;;;;4479644;32;20471;-67
2022/01/17 02:10:01;;;;;;;6.55;1.75;;;19.20;53.60;;;;;;4480831;31;20608;-67
2022/01/17 02:12:29;;;;;;;6.55;1.63;;;19.20;53.60;;;;;;4479395;32;20259;-67
2022/01/17 02:14:56;;;;;;;7.13;1.60;;;19.20;53.60;;;;;;4480770;32;20259;-67
2022/01/17 02:17:24;;;;;;;6.75;1.58;;;19.10;53.50;;;;;;4480856;31;20172;-67
2022/01/17 02:19:57;;;;;;;8.43;2.03;;;19.10;53.50;;;;;;4474900;31;20116;-67
2022/01/17 02:22:23;;;;;;;4.95;1.52;;;19.10;53.50;;;;;;4481287;31;20629;-67
2022/01/17 02:24:49;;;;;;;6.25;1.95;;;19.10;53.50;;;;;;4480336;31;20125;-67
2022/01/17 02:27:15;;;;;;;8.27;1.90;;;19.10;53.50;;;;;;4480592;32;20117;-67
2022/01/17 02:29:41;;;;;;;8.80;1.83;;;19.10;53.50;;;;;;4480220;32;20192;-67
2022/01/17 02:32:07;;;;;;;5.07;1.52;;;19.10;53.50;;;;;;4480499;32;20114;-67
2022/01/17 02:34:33;;;;;;;5.65;1.67;;;19.10;53.40;;;;;;4492644;31;20147;-67
2022/01/17 02:36:59;;;;;;;9.48;1.60;;;19.00;53.30;;;;;;4479921;32;20136;-67
2022/01/17 02:39:24;;;;;;;8.52;1.88;;;19.00;53.30;;;;;;4480963;32;20113;-67
2022/01/17 02:41:50;;;;;;;4.97;1.75;;;19.00;53.20;;;;;;4480158;32;20271;-67
2022/01/17 02:44:16;;;;;;;6.65;1.50;;;19.00;53.20;;;;;;4479673;32;20143;-67
2022/01/17 02:46:43;;;;;;;5.57;1.80;;;19.00;53.20;;;;;;4480146;32;20131;-68
2022/01/17 02:49:09;;;;;;;6.70;1.70;;;19.00;53.20;;;;;;4480336;32;20129;-67
2022/01/17 02:51:35;;;;;;;5.15;1.38;;;19.00;53.20;;;;;;4480549;32;20125;-67
2022/01/17 02:54:02;;;;;;;6.70;1.70;;;19.00;53.20;;;;;;4480227;32;20127;-67
2022/01/17 02:56:28;;;;;;;7.35;1.67;;;19.00;53.10;;;;;;4480550;32;20202;-67
2022/01/17 02:58:54;;;;;;;5.25;1.73;;;19.00;53.10;;;;;;4465944;32;20669;-67
2022/01/17 03:01:23;;;;;;;7.07;1.77;;;19.00;53.00;;;;;;4480479;32;20246;-67
2022/01/17 03:03:50;;;;;;;7.65;1.65;;;18.90;52.90;;;;;;4480028;32;21010;-67
2022/01/17 03:06:17;;;;;;;5.28;1.52;;;18.90;52.90;;;;;;4479159;32;20128;-67
2022/01/17 03:08:45;;;;;;;9.48;2.30;;;18.90;52.90;;;;;;4479405;32;20110;-67
2022/01/17 03:11:13;;;;;;;7.13;1.88;;;18.90;52.90;;;;;;4479848;32;20117;-68
2022/01/17 03:13:40;;;;;;;5.68;1.70;;;18.90;52.80;;;;;;4480596;32;20191;-67
2022/01/17 03:16:09;;;;;;;6.00;1.80;;;18.90;52.80;;;;;;4491936;31;20263;-67
2022/01/17 03:18:40;;;;;;;6.95;1.90;;;18.90;52.80;;;;;;4495380;31;20262;-67
2022/01/17 03:21:08;;;;;;;7.10;2.25;;;18.90;52.70;;;;;;4495024;31;20125;-67
2022/01/17 03:23:35;;;;;;;9.88;2.10;;;18.90;52.70;;;;;;4483234;31;20149;-68
2022/01/17 03:26:01;;;;;;;7.50;1.90;;;18.90;52.70;;;;;;4481934;31;20195;-67
2022/01/17 03:28:27;;;;;;;6.53;1.67;;;18.90;52.70;;;;;;4494961;31;20186;-68
2022/01/17 03:30:53;;;;;;;6.80;1.75;;;18.90;52.70;;;;;;4483255;31;20136;-67
2022/01/17 03:33:19;;;;;;;7.53;1.95;;;18.90;52.70;;;;;;4482633;31;20625;-67
2022/01/17 03:35:46;;;;;;;8.95;2.40;;;18.80;52.60;;;;;;4483357;32;20136;-67
2022/01/17 03:38:14;;;;;;;6.43;1.98;;;18.80;52.50;;;;;;4482540;31;20133;-67
2022/01/17 03:40:42;;;;;;;7.75;1.85;;;18.80;52.60;;;;;;4483166;31;20164;-68
2022/01/17 03:43:09;;;;;;;5.28;1.60;;;18.80;52.60;;;;;;4481907;32;20121;-68
2022/01/17 03:45:35;;;;;;;7.68;1.70;;;18.80;52.50;;;;;;4481526;32;20555;-67
2022/01/17 03:48:01;;;;;;;9.55;2.05;;;18.80;52.50;;;;;;4494609;31;20125;-67
2022/01/17 03:50:28;;;;;;;6.85;1.75;;;18.80;52.50;;;;;;4481638;32;20270;-67
2022/01/17 03:52:54;;;;;;;5.72;1.60;;;18.80;52.50;;;;;;4482893;31;20117;-67
2022/01/17 03:55:21;;;;;;;7.43;2.10;;;18.80;52.50;;;;;;4482211;32;20148;-67
2022/01/17 03:57:47;;;;;;;5.18;1.60;;;18.80;52.50;;;;;;4482922;31;20139;-67
2022/01/17 04:00:24;;;;;;;6.80;1.90;;;18.70;52.40;;;;;;4494709;31;20129;-67
2022/01/17 04:02:52;;;;;;;5.18;1.58;;;18.70;52.40;;;;;;4481303;32;20133;-67
2022/01/17 04:05:19;;;;;;;8.18;2.28;;;18.70;52.40;;;;;;4482640;31;20129;-67
2022/01/17 04:07:45;;;;;;;7.18;1.70;;;18.70;52.40;;;;;;4482090;31;20179;-67
2022/01/17 04:10:12;;;;;;;8.27;2.05;;;18.70;52.40;;;;;;4482473;32;20125;-67
2022/01/17 04:12:39;;;;;;;6.25;1.80;;;18.70;52.40;;;;;;4494622;31;20121;-68
2022/01/17 04:15:06;;;;;;;6.32;1.70;;;18.70;52.50;;;;;;4482204;32;20124;-67
2022/01/17 04:17:32;;;;;;;8.95;2.00;;;18.70;52.50;;;;;;4482661;31;20192;-67
2022/01/17 04:20:06;;;;;;;5.90;1.73;;;18.60;52.40;;;;;;4482204;31;20123;-67
2022/01/17 04:22:41;;;;;;;6.22;1.88;;;18.70;52.50;;;;;;4482624;31;20133;-67
2022/01/17 04:25:08;;;;;;;7.30;1.92;;;18.60;53.40;;;;;;4481955;31;20129;-67
2022/01/17 04:27:35;;;;;;;7.72;1.67;;;18.60;52.40;;;;;;4482209;31;20133;-67
2022/01/17 04:30:01;;;;;;;6.72;2.10;;;18.60;52.50;;;;;;4494205;31;20179;-67
2022/01/17 04:32:27;;;;;;;8.68;2.22;;;18.60;52.40;;;;;;4481956;31;20149;-68
2022/01/17 04:34:53;;;;;;;7.07;2.00;;;18.60;52.40;;;;;;4481283;32;20203;-67
2022/01/17 04:37:19;;;;;;;6.70;2.08;;;18.60;52.40;;;;;;4481818;32;20129;-67
2022/01/17 04:39:45;;;;;;;6.20;1.98;;;18.60;52.40;;;;;;4482164;31;20226;-68
2022/01/17 04:42:12;;;;;;;7.03;1.85;;;18.60;52.40;;;;;;4481624;32;20118;-68
2022/01/17 04:47:24;;;;;;;5.63;1.55;;;18.60;52.40;;;;;;4481956;32;20153;-67
2022/01/17 04:49:50;;;;;;;5.45;1.67;;;18.60;52.40;;;;;;4480565;32;20154;-67
2022/01/17 04:52:16;;;;;;;6.00;1.55;;;18.60;52.40;;;;;;4481976;32;20129;-67
2022/01/17 04:54:44;;;;;;;7.93;1.80;;;18.50;52.40;;;;;;4481693;31;20202;-67
2022/01/17 04:57:12;;;;;;;7.43;2.22;;;18.50;52.40;;;;;;4481801;32;20136;-67
2022/01/17 04:59:42;;;;;;;6.28;1.42;;;18.50;52.40;;;;;;4481697;31;20204;-67
2022/01/17 05:02:10;;;;;;;7.68;1.85;;;18.50;53.30;;;;;;4481613;32;20304;-67
2022/01/17 05:04:36;;;;;;;7.32;1.90;;;18.50;52.40;;;;;;4480969;32;20140;-67
2022/01/17 05:07:04;;;;;;;6.60;1.70;;;18.50;52.30;;;;;;4481174;32;20140;-67
2022/01/17 05:09:30;;;;;;;8.35;1.80;;;18.50;52.30;;;;;;4480661;32;20152;-67
2022/01/17 05:11:58;;;;;;;8.80;2.30;;;18.50;52.30;;;;;;4480446;32;20116;-67
2022/01/17 05:14:25;;;;;;;7.32;1.90;;;18.50;52.30;;;;;;4481568;31;20113;-67
2022/01/17 05:16:58;;;;;;;6.78;1.60;;;18.50;52.30;;;;;;4481319;31;20125;-67
2022/01/17 05:22:09;;;;;;;7.75;2.00;;;18.40;52.30;;;;;;4481585;32;20124;-67
2022/01/17 05:24:34;;;;;;;7.50;2.40;;;18.40;52.30;;;;;;4481286;32;20113;-68
2022/01/17 05:27:00;;;;;;;7.43;2.13;;;18.40;52.30;;;;;;4480311;32;20121;-67
2022/01/17 05:29:26;;;;;;;8.32;2.20;;;18.40;52.40;;;;;;4480807;32;20219;-67
2022/01/17 05:31:52;;;;;;;9.30;2.03;;;18.40;52.20;;;;;;4493584;31;20123;-67
2022/01/17 05:34:18;;;;;;;6.93;2.45;;;18.40;52.30;;;;;;4481048;32;20121;-67
2022/01/17 05:36:44;;;;;;;9.00;2.35;;;18.40;52.30;;;;;;4481201;31;20121;-67
2022/01/17 05:39:10;;;;;;;6.72;2.13;;;18.40;52.40;;;;;;4493196;31;20121;-67
2022/01/17 05:41:37;;;;;;;5.65;1.95;;;18.40;52.30;;;;;;4479469;32;20148;-68
2022/01/17 05:44:03;;;;;;;5.65;1.77;;;18.40;52.20;;;;;;4481316;32;20141;-67
2022/01/17 05:46:29;;;;;;;6.38;1.90;;;18.40;52.30;;;;;;4480393;32;20128;-67
2022/01/17 05:48:55;;;;;;;8.45;2.30;;;18.40;52.40;;;;;;4481384;32;20140;-67
2022/01/17 05:51:21;;;;;;;7.55;1.98;;;18.40;52.40;;;;;;4480668;32;20133;-67
2022/01/17 05:53:46;;;;;;;8.48;2.30;;;18.30;52.30;;;;;;4481051;31;20117;-67
2022/01/17 05:56:12;;;;;;;8.90;2.25;;;18.30;52.20;;;;;;4493392;31;20157;-67
2022/01/17 05:58:38;;;;;;;10.23;2.40;;;18.30;52.20;;;;;;4480457;31;20121;-67
2022/01/17 06:01:05;;;;;;;8.48;2.38;;;18.30;52.20;;;;;;4480899;32;20448;-67
2022/01/17 06:03:32;;;;;;;8.70;2.58;;;18.30;52.20;;;;;;4480429;31;20608;-67
2022/01/17 06:05:58;;;;;;;7.43;2.25;;;18.30;52.20;;;;;;4480297;32;20160;-67
2022/01/17 06:08:25;;;;;;;10.35;2.40;;;18.30;52.30;;;;;;4479795;32;20526;-67
2022/01/17 06:10:51;;;;;;;8.90;2.58;;;18.30;52.30;;;;;;4479819;32;20581;-68
2022/01/17 06:13:17;;;;;;;8.90;2.47;;;18.30;52.30;;;;;;4479905;32;20936;-67
2022/01/17 06:15:42;;;;;;;8.85;2.70;;;18.30;52.20;;;;;;4477530;32;20125;-67
2022/01/17 06:18:08;;;;;;;7.85;2.17;;;18.30;52.30;;;;;;4480030;32;20184;-67
2022/01/17 06:20:34;;;;;;;9.80;2.67;;;18.30;52.20;;;;;;4478415;32;20129;-67
2022/01/17 06:23:00;;;;;;;7.53;2.70;;;18.30;52.30;;;;;;4479178;32;20247;-67
2022/01/17 06:25:26;;;;;;;8.02;2.80;;;18.30;52.30;;;;;;4478994;32;20125;-67
2022/01/17 06:27:52;;;;;;;9.40;2.60;;;18.20;52.20;;;;;;4478859;32;20125;-67
2022/01/17 06:30:18;;;;;;;8.98;2.88;;;18.20;52.20;;;;;;4478797;32;20125;-67
2022/01/17 06:32:44;;;;;;;8.85;2.55;;;18.20;52.20;;;;;;4478999;32;20152;-67
2022/01/17 06:35:10;;;;;;;7.55;2.15;;;18.20;52.20;;;;;;4478377;32;20125;-67
2022/01/17 06:37:38;;;;;;;10.48;3.08;;;18.20;52.20;;;;;;4478955;32;20141;-67
2022/01/17 06:40:07;;;;;;;7.35;2.10;;;18.20;52.20;;;;;;4477824;32;20139;-67
2022/01/17 06:42:33;;;;;;;9.57;2.70;;;18.20;52.20;;;;;;4478112;32;20145;-67
2022/01/17 06:45:02;;;;;;;6.93;2.15;;;18.20;52.30;;;;;;4478363;32;20142;-67
2022/01/17 06:47:28;;;;;;;11.43;2.92;;;18.20;52.20;;;;;;4478494;32;20132;-67
2022/01/17 06:49:53;;;;;;;9.60;2.67;;;18.20;52.20;;;;;;4479852;32;20143;-67
2022/01/17 06:52:19;;;;;;;8.40;2.70;;;18.20;52.20;;;;;;4482207;31;20179;-67
2022/01/17 06:54:45;;;;;;;8.30;2.38;;;18.10;52.20;;;;;;4482272;32;20462;-67
2022/01/17 06:57:11;;;;;;;9.57;2.90;;;18.10;52.20;;;;;;4479543;32;20192;-67
2022/01/17 06:59:37;;;;;;;9.95;2.83;;;18.10;52.20;;;;;;4482217;32;20171;-67
2022/01/17 07:02:03;;;;;;;9.27;2.25;;;18.10;52.20;;;;;;4482685;32;20113;-67
2022/01/17 07:04:29;;;;;;;8.35;2.38;;;18.10;52.20;;;;;;4494223;31;20125;-67
2022/01/17 07:06:55;;;;;;;9.05;2.53;;;18.10;52.20;;;;;;4481827;32;20157;-67
2022/01/17 07:09:21;;;;;;;11.68;3.03;;;18.10;52.20;;;;;;4481819;31;20144;-67
2022/01/17 07:11:47;;;;;;;10.63;2.85;;;18.10;52.20;;;;;;4482055;32;20156;-67
2022/01/17 07:14:14;;;;;;;11.65;3.10;;;18.10;52.10;;;;;;4482089;31;20117;-67
2022/01/17 07:16:41;;;;;;;10.65;2.67;;;18.10;52.10;;;;;;4482329;32;20563;-67
2022/01/17 07:19:08;;;;;;;7.93;2.65;;;18.10;52.20;;;;;;4482031;31;20136;-67
2022/01/17 07:21:34;;;;;;;10.38;2.40;;;18.10;52.20;;;;;;4481859;31;20180;-67
2022/01/17 07:24:00;;;;;;;8.00;2.75;;;18.10;52.20;;;;;;4481548;31;20141;-68
2022/01/17 07:26:27;;;;;;;9.63;2.85;;;18.10;52.30;;;;;;4480469;32;20271;-67
2022/01/17 07:28:53;;;;;;;9.45;2.75;;;18.10;52.30;;;;;;4480472;32;20478;-67
2022/01/17 07:31:19;;;;;;;10.65;3.30;;;18.10;52.30;;;;;;4482010;32;20125;-67
2022/01/17 07:33:45;;;;;;;10.93;3.05;;;18.00;52.20;;;;;;4481201;32;20140;-67
2022/01/17 07:36:19;;;;;;;13.45;3.03;;;18.00;52.20;;;;;;4481704;31;20147;-67
2022/01/17 07:38:45;;;;;;;;;;;18.00;52.20;;;;;;4482425;32;20144;-67
2022/01/17 07:41:12;;;;;;;11.98;2.92;;;18.00;52.10;;;;;;4481406;32;20474;-67
2022/01/17 07:43:38;;;;;;;9.27;3.22;;;18.00;52.40;;;;;;4481688;31;20137;-67
2022/01/17 07:46:18;;;;;;;11.57;2.92;;;18.00;52.30;;;;;;4481355;31;20183;-67
2022/01/17 07:48:57;;;;;;;12.93;3.22;;;18.00;52.20;;;;;;4469002;32;20124;-67
2022/01/17 07:51:25;;;;;;;10.10;3.35;;;18.00;52.20;;;;;;4492956;31;20256;-67
2022/01/17 07:53:52;;;;;;;11.85;3.35;;;18.00;52.20;;;;;;4478202;32;20167;-68
2022/01/17 07:56:21;;;;;;;11.35;3.17;;;18.00;52.20;;;;;;4481702;31;20151;-67
2022/01/17 07:58:47;;;;;;;11.68;3.42;;;18.00;52.30;;;;;;4480893;32;20387;-67
2022/01/17 08:01:13;;;;;;;9.27;3.00;;;17.90;52.20;;;;;;4481363;32;20121;-67
2022/01/17 08:03:38;;;;;;;12.93;3.08;;;18.00;52.30;;;;;;4479226;32;20617;-67
2022/01/17 08:06:04;;;;;;;12.65;3.15;;;17.90;52.20;;;;;;4479826;32;20159;-67
2022/01/17 08:08:30;;;;;;;11.82;3.53;;;17.90;52.20;;;;;;4480998;32;20153;-67
2022/01/17 08:10:57;;;;;;;14.35;3.38;;;17.90;52.20;;;;;;4492643;31;20505;-67
2022/01/17 08:13:23;;;;;;;10.45;2.95;;;17.90;52.30;;;;;;4480136;32;20586;-67
2022/01/17 08:15:49;;;;;;;8.65;3.05;;;17.90;52.30;;;;;;4479486;32;20131;-67
2022/01/17 08:18:15;;;;;;;11.07;3.60;;;17.90;52.30;;;;;;4481049;32;20133;-64
2022/01/17 08:20:42;;;;;;;21.02;3.80;;;17.90;52.30;;;;;;4477155;32;20144;-64
2022/01/17 08:23:09;;;;;;;16.05;3.90;;;17.90;52.30;;;;;;4480917;31;20144;-64
2022/01/17 08:25:38;;;;;;;23.00;4.90;;;17.90;51.90;;;;;;4479664;32;20125;-64
2022/01/17 08:28:05;;;;;;;19.77;4.18;;;17.90;51.70;;;;;;4480475;31;20884;-65
2022/01/17 08:30:32;;;;;;;19.63;4.18;;;17.90;51.90;;;;;;4466921;32;20186;-66
2022/01/17 08:33:02;;;;;;;17.15;4.03;;;17.80;52.20;;;;;;4480729;31;20273;-66
2022/01/17 08:35:28;;;;;;;12.65;3.15;;;17.80;52.40;;;;;;4481511;31;20281;-67
2022/01/17 08:37:54;;;;;;;17.58;3.90;;;17.80;52.50;;;;;;4480460;31;20137;-65
2022/01/17 08:40:20;;;;;;;14.07;3.70;;;17.80;52.50;;;;;;4481379;31;20129;-66
2022/01/17 08:42:47;;;;;;;19.33;4.30;;;17.80;52.50;;;;;;4480454;32;20133;-67
2022/01/17 08:45:14;;;;;;;18.83;4.40;;;17.80;52.40;;;;;;4480878;31;20770;-67
2022/01/17 08:47:40;;;;;;;14.88;4.13;;;17.90;52.70;;;;;;4493021;31;20125;-67
2022/01/17 08:50:07;;;;;;;15.65;3.85;;;17.90;52.60;;;;;;4480556;32;20133;-67
2022/01/17 08:52:34;;;;;;;14.15;3.97;;;17.90;52.50;;;;;;4482163;31;20132;-66
2022/01/17 08:55:00;;;;;;;15.13;3.70;;;17.90;52.40;;;;;;4481695;32;20140;-66
2022/01/17 08:57:26;;;;;;;15.75;3.70;;;17.90;52.40;;;;;;4481006;32;20262;-66
2022/01/17 08:59:52;;;;;;;16.58;3.70;;;18.00;52.40;;;;;;4480487;32;20127;-66
2022/01/17 09:02:18;;;;;;;15.80;3.70;;;18.10;52.30;;;;;;4481356;32;20298;-66
2022/01/17 09:04:45;;;;;;;18.92;4.47;;;18.20;52.20;;;;;;4479988;32;20125;-67
2022/01/17 09:07:14;;;;;;;13.93;3.92;;;18.30;52.00;;;;;;4479939;31;20145;-66
2022/01/17 09:09:41;;;;;;;15.32;3.65;;;18.40;51.80;;;;;;4481433;31;20145;-66
2022/01/17 09:12:10;;;;;;;12.48;3.50;;;18.50;51.50;;;;;;4481354;31;20636;-66
2022/01/17 09:14:37;;;;;;;13.57;3.90;;;18.60;51.20;;;;;;4480800;31;20125;-66
2022/01/17 09:17:07;;;;;;;17.05;3.55;;;18.70;50.90;;;;;;4480598;32;20129;-66
2022/01/17 09:19:35;;;;;;;16.80;3.60;;;18.80;50.70;;;;;;4481323;31;20143;-66
2022/01/17 09:22:01;;;;;;;13.70;3.70;;;18.90;50.50;;;;;;4481395;31;20603;-66
2022/01/17 09:24:27;;;;;;;14.50;3.80;;;19.00;50.30;;;;;;4481147;32;20121;-65
2022/01/17 09:26:53;;;;;;;15.38;3.95;;;19.10;50.10;;;;;;4480317;32;20149;-66
2022/01/17 09:29:19;;;;;;;12.68;3.60;;;19.20;49.90;;;;;;4480062;32;20113;-64
2022/01/17 09:31:46;;;;;;;13.05;3.75;;;19.30;49.70;;;;;;4481035;31;20572;-64
2022/01/17 09:34:12;;;;;;;15.52;3.90;;;19.40;49.70;;;;;;4481252;31;20183;-62
2022/01/17 09:36:38;;;;;;;16.00;3.60;;;19.60;49.60;;;;;;4481067;31;20144;-66
2022/01/17 09:39:06;;;;;;;13.20;3.83;;;19.70;49.40;;;;;;4481240;32;20129;-66
2022/01/17 09:41:32;;;;;;;14.73;3.63;;;19.80;49.40;;;;;;4480864;32;20121;-66
2022/01/17 09:43:59;;;;;;;11.13;3.50;;;19.90;49.20;;;;;;4481148;31;20263;-65
2022/01/17 09:46:33;;;;;;;12.68;3.67;;;20.00;49.10;;;;;;4479611;32;20134;-66
2022/01/17 09:49:13;;;;;;;15.00;4.18;;;20.10;48.90;;;;;;4480997;31;20140;-66
2022/01/17 09:54:26;;;;;;;12.90;3.92;;;20.30;48.60;;;;;;4480297;31;20127;-66
2022/01/17 09:56:54;;;;;;;13.18;4.22;;;20.40;48.40;;;;;;4479315;32;20186;-66
2022/01/17 09:59:20;;;;;;;15.05;4.18;;;20.50;48.30;;;;;;4480010;31;20125;-67
2022/01/17 10:01:47;;;;;;;14.57;3.60;;;20.60;48.10;;;;;;4480391;32;20263;-65
2022/01/17 10:04:13;;;;;;;13.35;3.88;;;20.60;47.90;;;;;;4479932;32;20720;-65
2022/01/17 10:06:41;;;;;;;14.13;4.05;;;20.80;47.80;;;;;;4480429;32;20147;-66
2022/01/17 10:09:24;;;;;;;13.65;3.33;;;20.90;47.50;;;;;;4480754;31;20144;-64
2022/01/17 10:12:00;;;;;;;;;;;21.00;47.40;;;;;;4480055;32;20144;-65
2022/01/17 10:14:29;;;;;;;21.73;3.97;;;21.00;47.40;;;;;;4480946;32;20039;-64
2022/01/17 10:16:55;;;;;;;13.77;3.60;;;21.20;47.20;;;;;;4480316;31;20125;-72
2022/01/17 10:19:26;;;;;;;11.80;3.65;;;21.20;47.00;;;;;;4480308;32;20117;-71
2022/01/17 10:21:59;;;;;;;11.00;3.40;;;21.30;47.00;;;;;;4479332;32;20201;-72
2022/01/17 10:27:21;;;;;;;14.20;3.30;;;21.40;46.90;;;;;;4480288;31;20271;-72
2022/01/17 10:35:13;;;;;;;17.38;4.13;;;21.30;47.20;;;;;;4480167;31;20133;-66
2022/01/17 10:37:39;;;;;;;14.75;3.50;;;21.20;47.50;;;;;;4480144;32;20133;-65
2022/01/17 10:40:15;;;;;;;13.43;3.60;;;21.10;47.70;;;;;;4479496;32;20129;-65
2022/01/17 10:42:48;;;;;;;17.05;4.30;;;21.00;47.90;;;;;;4480543;32;20246;-66
2022/01/17 10:45:23;;;;;;;17.55;4.40;;;20.90;48.10;;;;;;4480093;32;20653;-65
2022/01/17 10:47:54;;;;;;;12.13;3.63;;;20.80;48.50;;;;;;4480452;32;20141;-65
2022/01/17 10:50:51;;;;;;;20.98;4.20;;;20.70;48.80;;;;;;4480288;32;20125;-66
2022/01/17 10:53:18;;;;;;;16.60;4.68;;;20.70;49.10;;;;;;4469972;32;20132;-65
2022/01/17 10:55:50;;;;;;;16.27;4.70;;;20.60;49.20;;;;;;4480493;32;20258;-65
2022/01/17 10:58:38;;;;;;;21.30;5.00;;;20.60;49.50;;;;;;4480124;32;20250;-66
2022/01/17 11:01:16;;;;;;;12.68;3.72;;;20.60;49.80;;;;;;4455373;32;20135;-65
2022/01/17 11:03:44;;;;;;;16.77;4.70;;;20.60;49.80;;;;;;4479953;32;20172;-65
2022/01/17 11:06:19;;;;;;;20.80;4.78;;;20.60;50.00;;;;;;4480231;32;20624;-65
2022/01/17 11:08:46;;;;;;;15.88;4.28;;;20.60;50.30;;;;;;4480424;32;20133;-65
2022/01/17 11:11:12;;;;;;;17.38;4.70;;;20.60;50.40;;;;;;4479853;32;20567;-65
2022/01/17 11:13:43;;;;;;;22.80;4.70;;;20.60;50.60;;;;;;4480590;32;20494;-65
2022/01/17 11:16:12;;;;;;;22.67;4.72;;;20.60;50.60;;;;;;4478911;32;20577;-66
2022/01/17 11:18:41;;;;;;;16.73;4.85;;;20.50;50.60;;;;;;4480245;32;20279;-65
2022/01/17 11:21:11;;;;;;;21.42;4.90;;;20.50;50.70;;;;;;4479992;32;20140;-66
2022/01/17 11:23:38;;;;;;;31.00;5.57;;;20.50;50.80;;;;;;4478527;32;20132;-65
2022/01/17 11:26:06;;;;;;;20.73;5.65;;;20.50;51.00;;;;;;4480257;32;20139;-65
2022/01/17 11:28:34;;;;;;;28.38;5.78;;;20.50;51.00;;;;;;4478519;32;20137;-65
2022/01/17 11:31:04;;;;;;;21.63;4.90;;;20.50;51.00;;;;;;4479746;32;20382;-65
2022/01/17 11:33:30;;;;;;;31.95;5.60;;;20.50;51.10;;;;;;4479316;32;20760;-66
2022/01/17 11:35:56;;;;;;;22.45;5.03;;;20.50;51.10;;;;;;4477977;32;20182;-65
2022/01/17 11:38:39;;;;;;;26.15;4.53;;;20.50;51.20;;;;;;4479574;31;20125;-65
2022/01/17 11:41:19;;;;;;;24.75;5.28;;;20.50;51.20;;;;;;4482612;31;20632;-65
2022/01/17 11:43:58;;;;;;;21.63;5.35;;;20.50;51.30;;;;;;4483325;31;20133;-65
2022/01/17 11:46:33;;;;;;;27.00;5.50;;;20.50;51.40;;;;;;4481615;32;20129;-65
2022/01/17 11:49:04;;;;;;;24.33;4.88;;;20.60;51.50;;;;;;4469065;32;20214;-65
2022/01/17 11:51:44;;;;;;;19.85;4.75;;;20.60;51.70;;;;;;4481919;32;20621;-65
2022/01/17 11:54:19;;;;;;;25.90;4.97;;;20.60;51.70;;;;;;4482026;31;20159;-65
2022/01/17 11:57:08;;;;;;;23.13;4.85;;;20.60;51.70;;;;;;4482896;31;20194;-65
2022/01/17 11:59:48;;;;;;;22.98;5.20;;;20.60;51.80;;;;;;4467197;31;20121;-64
2022/01/17 12:02:17;;;;;;;27.45;5.68;;;20.60;52.00;;;;;;4480007;31;20145;-65
2022/01/17 12:05:02;;;;;;;23.75;4.78;;;20.60;52.20;;;;;;4481671;31;20262;-65
2022/01/17 12:07:43;;;;;;;20.95;5.10;;;20.60;52.50;;;;;;4480298;31;20286;-64
2022/01/17 12:10:10;;;;;;;24.15;5.82;;;20.60;52.60;;;;;;4493748;31;20125;-65
2022/01/17 12:12:37;;;;;;;28.60;5.15;;;20.60;52.60;;;;;;4482218;32;20143;-65
2022/01/17 12:15:08;;;;;;;17.58;4.63;;;20.60;52.60;;;;;;4482517;31;20262;-65
2022/01/17 12:17:36;;;;;;;22.38;5.43;;;20.60;52.70;;;;;;4494841;31;20131;-65
2022/01/17 12:20:06;;;;;;;22.75;5.45;;;20.60;52.70;;;;;;4494419;31;20151;-65
2022/01/17 12:22:38;;;;;;;21.90;5.75;;;20.60;52.80;;;;;;4481492;32;20113;-65
2022/01/17 12:25:26;;;;;;;17.27;5.05;;;20.60;52.80;;;;;;4482396;31;20113;-64
2022/01/17 12:28:04;;;;;;;23.98;5.72;;;20.60;52.60;;;;;;4475100;32;20145;-64
2022/01/17 12:30:49;;;;;;;29.52;5.40;;;20.50;52.60;;;;;;4480725;32;20711;-63
2022/01/17 12:33:30;;;;;;;23.33;4.85;;;20.50;52.60;;;;;;4480993;32;20129;-64
2022/01/17 12:35:58;;;;;;;24.35;5.93;;;20.50;52.50;;;;;;4481084;32;20190;-65
2022/01/17 12:38:41;;;;;;;26.08;6.05;;;20.50;52.60;;;;;;4481479;31;20586;-64
2022/01/17 12:41:30;;;;;;;34.10;6.53;;;20.50;52.70;;;;;;4481422;31;20148;-64
2022/01/17 12:43:56;;;;;;;19.23;5.47;;;20.50;52.60;;;;;;4482095;31;20337;-64
2022/01/17 12:46:25;;;;;;;21.60;5.68;;;20.50;52.60;;;;;;4481100;31;20117;-64
2022/01/17 12:48:52;;;;;;;27.63;5.97;;;20.50;52.70;;;;;;4481549;31;20132;-64
2022/01/17 12:51:18;;;;;;;17.45;5.07;;;20.50;52.70;;;;;;4481453;31;20286;-63
2022/01/17 12:53:53;;;;;;;19.27;5.45;;;20.50;52.80;;;;;;4481476;31;20129;-64
2022/01/17 12:56:19;;;;;;;20.42;5.75;;;20.50;52.80;;;;;;4481600;31;20278;-64
2022/01/17 12:58:46;;;;;;;22.30;5.10;;;20.50;52.80;;;;;;4479442;32;20109;-63
2022/01/17 13:01:17;;;;;;;20.77;5.22;;;20.50;52.90;;;;;;4481188;31;20565;-64
2022/01/17 13:03:49;;;;;;;24.08;4.75;;;20.60;53.10;;;;;;4467767;32;20117;-64
2022/01/17 13:06:17;;;;;;;25.13;5.60;;;20.50;53.10;;;;;;4481215;31;20125;-64
2022/01/17 13:08:46;;;;;;;22.98;5.38;;;20.50;53.00;;;;;;4481856;31;20278;-65
2022/01/17 13:11:20;;;;;;;20.58;5.50;;;20.50;53.00;;;;;;4480888;31;20160;-64
2022/01/17 13:13:52;;;;;;;19.30;5.68;;;20.50;52.90;;;;;;4479722;31;20152;-64